Summit Argo, Illinois
Current Conditions -  °F | °C
As of 2:53 PM on Saturday 25 Oct 2014 (Local Time) from KMDW Reporting Station
Few Clouds Few Clouds  
Wind Chill: 74°   Ceiling: Unl
Heat Index: 74°   Visibility: 10mi
Dew Point: 33°   Wind: 16mph
Humidity: 22%   Direction: 270°W
Pressure: 29.91"   Gusts: 24mph
Location:  41.78°N, 87.81°W
Report Text: KMDW 251953Z 27014G21KT 10SM FEW250 23/01 A2991 RMK AO2 SLP125 T02330006
Loading
Personal Weather Stations






























Interactive Weather Map
Tropical Storm Tracking
New forecast layout! Learn more

10-Day Weather Forecast

Advertisements
Track Severe Weather on mobile